Time;durP1;ratioP1;P1;durP2;ratioP2;P2;SDS_P1;SDS_P2;PMS_P1;PMS_P2;Temp;Humidity;BMP_temperature;BMP_pressure;BME280_temperature;BME280_humidity;BME280_pressure;Samples;Min_cycle;Max_cycle;Signal;HPM_P1;HPM_P2
2022/08/17 00:00:14;;;;;;;21.75;18.02;;;19.10;99.90;;;;;;4733886;30;20081;-94
2022/08/17 00:03:05;;;;;;;19.65;17.55;;;19.10;99.90;;;;;;4734208;30;20060;-93
2022/08/17 00:05:35;;;;;;;17.05;14.95;;;19.00;99.90;;;;;;4718887;30;20495;-93
2022/08/17 00:08:01;;;;;;;24.85;18.15;;;19.00;99.90;;;;;;4733948;30;20121;-94
2022/08/17 00:10:26;;;;;;;19.55;17.02;;;19.00;99.90;;;;;;4733633;30;20122;-94
2022/08/17 00:12:52;;;;;;;19.75;17.55;;;18.90;99.90;;;;;;4734072;30;20059;-93
2022/08/17 00:15:22;;;;;;;20.48;18.13;;;18.90;99.90;;;;;;4733804;30;20056;-94
2022/08/17 00:17:49;;;;;;;25.90;20.52;;;18.90;99.90;;;;;;4733577;30;20048;-93
2022/08/17 00:20:16;;;;;;;22.48;20.08;;;18.80;99.90;;;;;;4733755;30;20475;-94
2022/08/17 00:22:42;;;;;;;25.15;21.35;;;18.80;99.90;;;;;;4720418;30;20498;-94
2022/08/17 00:25:13;;;;;;;24.10;19.88;;;18.80;99.90;;;;;;4733170;30;20064;-94
2022/08/17 00:27:39;;;;;;;23.58;20.52;;;18.80;99.90;;;;;;4720697;30;20059;-93
2022/08/17 00:30:07;;;;;;;22.50;20.10;;;18.80;99.90;;;;;;4741001;30;20121;-94
2022/08/17 00:32:38;;;;;;;20.58;18.52;;;18.70;99.90;;;;;;4750253;30;20138;-93
2022/08/17 00:35:06;;;;;;;19.70;17.55;;;18.70;99.90;;;;;;4751412;30;20052;-94
2022/08/17 00:37:32;;;;;;;22.30;18.08;;;18.60;99.90;;;;;;4737398;30;20051;-92
2022/08/17 00:39:58;;;;;;;20.17;17.98;;;18.60;99.90;;;;;;4751749;30;20058;-93
2022/08/17 00:42:23;;;;;;;12.80;11.07;;;18.60;99.90;;;;;;4750378;30;20113;-93
2022/08/17 00:44:49;;;;;;;17.45;15.63;;;18.60;99.90;;;;;;4751326;30;20205;-93
2022/08/17 00:47:15;;;;;;;14.93;13.38;;;18.50;99.90;;;;;;4750000;30;20068;-94
2022/08/17 00:49:40;;;;;;;13.85;12.30;;;18.50;99.90;;;;;;4752358;30;20047;-93
2022/08/17 00:52:14;;;;;;;17.02;15.27;;;18.50;99.90;;;;;;4750997;30;20058;-93
2022/08/17 00:54:42;;;;;;;23.73;18.30;;;18.50;99.90;;;;;;4735707;30;20425;-94
2022/08/17 00:57:14;;;;;;;24.85;19.48;;;18.40;99.90;;;;;;4735932;30;20051;-93
2022/08/17 00:59:45;;;;;;;27.38;21.92;;;18.40;99.90;;;;;;4737021;30;20055;-93
2022/08/17 01:02:14;;;;;;;23.27;20.38;;;18.40;99.90;;;;;;4736587;30;20074;-93
2022/08/17 01:04:44;;;;;;;25.08;22.08;;;18.40;99.90;;;;;;4751029;30;20094;-94
2022/08/17 01:07:10;;;;;;;22.27;19.27;;;18.40;99.90;;;;;;4751442;30;20541;-93
2022/08/17 01:09:36;;;;;;;22.67;19.90;;;18.40;99.90;;;;;;4736644;30;20062;-94
2022/08/17 01:12:05;;;;;;;25.33;20.17;;;18.40;99.90;;;;;;4750786;30;20052;-93
2022/08/17 01:14:31;;;;;;;28.35;22.08;;;18.40;99.90;;;;;;4752453;30;20055;-93
2022/08/17 01:16:57;;;;;;;25.20;20.38;;;18.40;99.90;;;;;;4751786;30;20126;-93
2022/08/17 01:19:28;;;;;;;127.55;19.73;;;18.40;99.90;;;;;;4737433;30;20055;-93
2022/08/17 01:22:10;;;;;;;42.30;23.67;;;18.40;99.90;;;;;;4739701;30;20134;-94
2022/08/17 01:24:39;;;;;;;20.03;17.97;;;18.40;99.90;;;;;;4741928;30;20524;-93
2022/08/17 01:27:05;;;;;;;19.88;17.88;;;18.40;99.90;;;;;;4755664;30;20047;-94
2022/08/17 01:29:31;;;;;;;16.58;14.07;;;18.30;99.90;;;;;;4739224;30;20517;-93
2022/08/17 01:32:01;;;;;;;32.90;25.50;;;18.30;99.90;;;;;;4754992;30;20052;-93
2022/08/17 01:34:27;;;;;;;61.20;24.95;;;18.20;99.90;;;;;;4741387;30;20098;-94
2022/08/17 01:36:53;;;;;;;453.65;31.40;;;18.20;99.90;;;;;;4753326;30;20055;-93
2022/08/17 01:39:24;;;;;;;421.92;30.67;;;18.20;99.90;;;;;;4754536;30;20054;-94
2022/08/17 01:41:55;;;;;;;20.63;18.48;;;18.10;99.90;;;;;;4741531;30;20126;-93
2022/08/17 01:44:23;;;;;;;18.15;16.27;;;18.10;99.90;;;;;;4740688;30;20048;-94
2022/08/17 01:46:48;;;;;;;17.70;15.82;;;18.10;99.90;;;;;;4756122;30;20054;-93
2022/08/17 01:49:14;;;;;;;12.73;11.13;;;18.10;99.90;;;;;;4753312;30;20569;-93
2022/08/17 01:51:40;;;;;;;12.23;9.40;;;18.10;99.90;;;;;;4754332;30;20051;-93
2022/08/17 01:54:11;;;;;;;22.85;20.55;;;18.00;99.90;;;;;;4755461;30;20520;-93
2022/08/17 01:56:46;;;;;;;22.13;19.73;;;18.00;99.90;;;;;;4738294;30;20079;-93
2022/08/17 01:59:12;;;;;;;24.30;18.90;;;18.00;99.90;;;;;;4738853;30;20083;-93
2022/08/17 02:01:39;;;;;;;21.25;17.42;;;18.00;99.90;;;;;;4739056;30;20417;-94
2022/08/17 02:04:07;;;;;;;26.95;16.90;;;18.00;99.90;;;;;;4738530;30;20130;-94
2022/08/17 02:06:37;;;;;;;55.85;20.27;;;18.00;99.90;;;;;;4739146;30;20516;-93
2022/08/17 02:09:04;;;;;;;23.67;18.73;;;18.10;99.90;;;;;;4753919;30;20051;-94
2022/08/17 02:11:33;;;;;;;30.08;19.95;;;18.10;99.90;;;;;;4752734;30;20058;-92
2022/08/17 02:13:59;;;;;;;26.75;20.42;;;18.10;99.90;;;;;;4738819;30;20511;-93
2022/08/17 02:16:25;;;;;;;29.48;21.23;;;18.20;99.90;;;;;;4753453;30;20139;-93
2022/08/17 02:18:51;;;;;;;27.05;18.83;;;18.20;99.90;;;;;;4755104;30;20134;-93
2022/08/17 02:21:16;;;;;;;25.40;17.75;;;18.30;99.90;;;;;;4753854;30;20056;-92
2022/08/17 02:23:46;;;;;;;44.05;21.75;;;18.30;99.90;;;;;;4753536;30;20047;-92
2022/08/17 02:26:12;;;;;;;85.72;22.73;;;18.30;99.90;;;;;;4738554;30;20058;-93
2022/08/17 02:28:37;;;;;;;55.00;20.48;;;18.40;99.90;;;;;;4752969;30;20048;-92
2022/08/17 02:31:06;;;;;;;48.00;20.38;;;18.40;99.90;;;;;;4741137;30;20059;-93
2022/08/17 02:33:33;;;;;;;402.63;28.73;;;18.40;99.90;;;;;;4737774;30;20051;-93
2022/08/17 02:35:59;;;;;;;128.57;20.70;;;18.40;99.90;;;;;;4738823;30;20498;-92
2022/08/17 02:38:24;;;;;;;271.25;22.05;;;18.40;99.90;;;;;;4737913;30;20043;-93
2022/08/17 02:40:50;;;;;;;271.55;23.63;;;18.50;99.90;;;;;;4738584;30;20055;-92
2022/08/17 02:43:16;;;;;;;512.58;27.95;;;18.50;99.90;;;;;;4738224;30;20052;-92
2022/08/17 02:45:43;;;;;;;355.02;25.17;;;18.50;99.90;;;;;;4739576;30;20085;-92
2022/08/17 02:48:09;;;;;;;485.45;36.42;;;18.50;99.90;;;;;;4738884;30;20047;-93
2022/08/17 02:50:35;;;;;;;94.07;21.05;;;18.50;99.90;;;;;;4738864;30;20072;-93
2022/08/17 02:53:02;;;;;;;165.50;22.75;;;18.50;99.90;;;;;;4738149;30;20062;-93
2022/08/17 02:55:32;;;;;;;48.72;19.92;;;18.50;99.90;;;;;;4739700;30;20105;-93
2022/08/17 02:57:58;;;;;;;76.75;20.77;;;18.50;99.90;;;;;;4738417;30;20047;-93
2022/08/17 03:00:28;;;;;;;130.60;20.65;;;18.50;99.90;;;;;;4737687;30;20577;-93
2022/08/17 03:02:56;;;;;;;92.28;20.23;;;18.50;99.90;;;;;;4739922;30;20051;-93
2022/08/17 03:05:25;;;;;;;86.85;20.95;;;18.50;99.90;;;;;;4737977;30;20394;-93
2022/08/17 03:07:51;;;;;;;59.55;19.40;;;18.50;99.90;;;;;;4734994;30;20043;-93
2022/08/17 03:10:18;;;;;;;382.40;38.25;;;18.50;99.90;;;;;;4720928;30;20054;-94
2022/08/17 03:12:45;;;;;;;129.02;20.67;;;18.50;99.90;;;;;;4719706;30;20056;-93
2022/08/17 03:15:15;;;;;;;61.05;18.85;;;18.40;99.90;;;;;;4720448;30;20054;-93
2022/08/17 03:17:41;;;;;;;54.38;18.63;;;18.40;99.90;;;;;;4721387;30;20563;-93
2022/08/17 03:20:08;;;;;;;72.32;18.45;;;18.40;99.90;;;;;;4735276;30;20056;-93
2022/08/17 03:22:37;;;;;;;98.20;19.33;;;18.30;99.90;;;;;;4734879;30;20048;-93
2022/08/17 03:25:03;;;;;;;30.00;18.10;;;18.30;99.90;;;;;;4720733;30;20414;-93
2022/08/17 03:27:29;;;;;;;35.08;18.52;;;18.30;99.90;;;;;;4734475;30;20082;-93
2022/08/17 03:29:55;;;;;;;26.60;17.13;;;18.30;99.90;;;;;;4720408;30;20056;-93
2022/08/17 03:32:21;;;;;;;111.40;20.73;;;18.20;99.90;;;;;;4733935;30;20413;-93
2022/08/17 03:34:47;;;;;;;122.22;20.33;;;18.20;99.90;;;;;;4719491;30;20089;-93
2022/08/17 03:37:13;;;;;;;43.40;19.40;;;18.20;99.90;;;;;;4734530;30;20048;-93
2022/08/17 03:39:39;;;;;;;264.13;29.95;;;18.20;99.90;;;;;;4734741;30;20059;-93
2022/08/17 03:42:09;;;;;;;141.45;22.10;;;18.10;99.90;;;;;;4732799;30;20052;-93
2022/08/17 03:44:34;;;;;;;334.10;38.70;;;18.00;99.90;;;;;;4720103;30;20117;-93
2022/08/17 03:57:56;;;;;;;91.18;18.13;;;17.80;99.90;;;;;;4745119;30;20119;-94
2022/08/17 04:00:22;;;;;;;195.77;22.80;;;17.70;99.90;;;;;;4738675;30;20047;-94
2022/08/17 04:02:48;;;;;;;222.77;23.67;;;17.70;99.90;;;;;;4736542;30;20462;-94
2022/08/17 04:05:14;;;;;;;20.67;14.98;;;17.60;99.90;;;;;;4737511;30;20156;-94
2022/08/17 04:07:40;;;;;;;117.35;19.05;;;17.60;99.90;;;;;;4737198;30;20047;-93
2022/08/17 04:10:06;;;;;;;79.30;17.00;;;17.60;99.90;;;;;;4736414;30;20082;-93
2022/08/17 04:12:53;;;;;;;301.05;23.23;;;17.60;99.90;;;;;;4736951;30;20091;-94
2022/08/17 04:15:20;;;;;;;50.60;16.80;;;17.50;99.90;;;;;;4736492;30;20545;-93
2022/08/17 04:17:46;;;;;;;220.20;20.20;;;17.50;99.90;;;;;;4736961;30;20054;-93
2022/08/17 04:20:15;;;;;;;94.47;17.30;;;17.50;99.90;;;;;;4737724;30;20131;-94
2022/08/17 04:23:04;;;;;;;41.50;16.40;;;17.40;99.90;;;;;;4736922;30;20390;-93
2022/08/17 04:25:35;;;;;;;34.55;17.02;;;17.50;99.90;;;;;;4737002;30;20142;-96
2022/08/17 04:28:02;;;;;;;25.60;17.55;;;17.50;99.90;;;;;;4741734;30;20051;-93
2022/08/17 04:30:31;;;;;;;51.15;17.08;;;17.50;99.90;;;;;;4736002;30;20047;-94
2022/08/17 04:32:59;;;;;;;32.13;17.50;;;17.60;99.90;;;;;;4736009;30;20050;-94
2022/08/17 04:35:29;;;;;;;23.08;17.23;;;17.60;99.90;;;;;;4736558;30;20508;-94
2022/08/17 04:37:56;;;;;;;38.88;18.05;;;17.70;99.90;;;;;;4738918;30;20047;-94
2022/08/17 04:43:11;;;;;;;27.38;18.10;;;17.70;99.90;;;;;;4751543;30;20052;-94
2022/08/17 04:45:42;;;;;;;28.60;17.73;;;17.80;99.90;;;;;;4750610;30;20058;-94
2022/08/17 04:48:08;;;;;;;35.47;18.77;;;17.80;99.90;;;;;;4737599;30;20052;-94
2022/08/17 04:50:34;;;;;;;160.30;21.45;;;17.90;99.90;;;;;;4736473;30;20060;-94
2022/08/17 04:53:01;;;;;;;247.90;22.80;;;17.90;99.90;;;;;;4735627;30;20472;-93
2022/08/17 04:55:27;;;;;;;20.98;18.80;;;17.90;99.90;;;;;;4736030;30;20039;-93
2022/08/17 04:57:52;;;;;;;41.53;19.38;;;17.90;99.90;;;;;;4736399;30;20501;-94
2022/08/17 05:00:19;;;;;;;28.13;20.05;;;18.00;99.90;;;;;;4737339;30;20050;-93
2022/08/17 05:02:47;;;;;;;186.60;23.02;;;18.00;99.90;;;;;;4736850;30;20124;-94
2022/08/17 05:05:17;;;;;;;281.73;27.15;;;18.10;99.90;;;;;;4736280;30;20052;-95
2022/08/17 05:07:43;;;;;;;35.00;20.65;;;18.10;99.90;;;;;;4735849;30;20056;-95
2022/08/17 05:10:10;;;;;;;38.50;22.15;;;18.10;99.90;;;;;;4751247;30;20058;-94
2022/08/17 05:12:36;;;;;;;30.63;21.55;;;18.20;99.90;;;;;;4751161;30;20055;-94
2022/08/17 05:15:01;;;;;;;25.02;22.33;;;18.30;99.90;;;;;;4751642;30;20089;-94
2022/08/17 05:17:27;;;;;;;75.80;28.88;;;18.40;99.90;;;;;;4737083;30;20075;-94
2022/08/17 05:19:53;;;;;;;29.33;23.05;;;18.40;99.90;;;;;;4750214;30;20079;-94
2022/08/17 05:22:18;;;;;;;38.40;28.85;;;18.50;99.90;;;;;;4722043;30;20106;-95
2022/08/17 05:24:44;;;;;;;50.03;32.55;;;18.60;99.90;;;;;;4733103;30;20048;-94
2022/08/17 05:27:10;;;;;;;37.35;30.05;;;18.60;99.90;;;;;;4732318;30;20493;-94
2022/08/17 05:29:36;;;;;;;50.88;34.90;;;18.70;99.90;;;;;;4734287;30;20055;-94
2022/08/17 05:32:09;;;;;;;31.48;26.80;;;18.70;99.90;;;;;;4735094;30;20052;-94
2022/08/17 05:34:35;;;;;;;32.72;27.35;;;18.80;99.90;;;;;;4718179;30;20088;-94
2022/08/17 05:37:01;;;;;;;58.70;35.38;;;18.90;99.90;;;;;;4719752;30;20098;-95
2022/08/17 05:39:27;;;;;;;38.80;29.52;;;18.90;99.90;;;;;;4718063;30;20071;-94
2022/08/17 05:41:53;;;;;;;32.90;27.58;;;18.90;99.90;;;;;;4721573;30;20056;-95
2022/08/17 05:44:18;;;;;;;33.25;28.50;;;18.90;99.90;;;;;;4735147;30;20056;-95
2022/08/17 05:46:50;;;;;;;38.80;31.00;;;19.00;99.90;;;;;;4735287;30;20063;-95
2022/08/17 05:49:22;;;;;;;41.92;30.65;;;19.00;99.90;;;;;;4732750;30;20059;-95
2022/08/17 05:52:18;;;;;;;53.92;35.92;;;19.00;99.90;;;;;;4726474;30;20131;-95
2022/08/17 05:55:11;;;;;;;58.75;37.40;;;19.00;99.90;;;;;;4747506;30;20701;-94
2022/08/17 05:57:42;;;;;;;52.05;35.72;;;19.10;99.90;;;;;;4727233;30;20055;-95
2022/08/17 06:00:17;;;;;;;55.10;35.95;;;19.00;99.90;;;;;;4740831;30;20052;-94
2022/08/17 06:03:02;;;;;;;49.20;35.08;;;19.10;99.90;;;;;;4727594;30;20060;-93
2022/08/17 06:05:41;;;;;;;69.20;40.05;;;19.10;99.90;;;;;;4733474;30;20059;-94
2022/08/17 06:08:30;;;;;;;61.80;37.38;;;19.10;99.90;;;;;;4735639;30;20051;-94
2022/08/17 06:11:07;;;;;;;53.72;37.00;;;19.20;99.90;;;;;;4744136;30;20137;-95
2022/08/17 06:13:45;;;;;;;53.42;38.33;;;19.20;99.90;;;;;;4743220;30;20147;-95
2022/08/17 06:16:38;;;;;;;52.60;37.38;;;19.30;99.90;;;;;;4738643;30;20116;-94
2022/08/17 06:19:40;;;;;;;58.30;37.10;;;19.30;99.90;;;;;;4727483;30;20054;-95
2022/08/17 06:22:10;;;;;;;52.92;36.58;;;19.40;99.90;;;;;;4722589;30;20056;-94
2022/08/17 06:25:05;;;;;;;57.72;39.70;;;19.40;99.90;;;;;;4721037;30;20066;-93
2022/08/17 06:27:48;;;;;;;62.80;41.00;;;19.50;99.90;;;;;;4722135;30;20044;-94
2022/08/17 06:30:23;;;;;;;62.72;40.72;;;19.50;99.90;;;;;;4721442;30;20481;-93
2022/08/17 06:32:52;;;;;;;56.08;40.47;;;19.50;99.90;;;;;;4721136;30;20048;-91
2022/08/17 06:35:31;;;;;;;55.88;38.85;;;19.50;99.90;;;;;;4722533;30;20060;-91
2022/08/17 06:38:03;;;;;;;58.20;38.88;;;19.50;99.90;;;;;;4720386;30;20048;-92
2022/08/17 06:40:48;;;;;;;67.20;44.13;;;19.50;99.90;;;;;;4736981;30;20056;-88
2022/08/17 06:43:13;;;;;;;71.80;42.40;;;19.50;99.90;;;;;;4733025;30;20148;-91
2022/08/17 06:45:49;;;;;;;63.13;41.60;;;19.50;99.90;;;;;;4736858;30;20492;-89
2022/08/17 06:48:36;;;;;;;69.15;46.58;;;19.50;99.90;;;;;;4752207;30;20102;-88
2022/08/17 06:51:13;;;;;;;71.70;46.33;;;19.50;99.90;;;;;;4739285;30;20524;-88
2022/08/17 06:53:47;;;;;;;62.67;43.30;;;19.50;99.90;;;;;;4740645;30;20055;-88
2022/08/17 06:56:22;;;;;;;70.82;46.08;;;19.50;99.90;;;;;;4754221;30;20051;-88
2022/08/17 06:58:48;;;;;;;70.82;46.00;;;19.40;99.90;;;;;;4737457;30;20062;-87
2022/08/17 07:01:20;;;;;;;81.35;52.22;;;19.50;99.90;;;;;;4737452;30;20059;-89
2022/08/17 07:03:53;;;;;;;79.40;51.65;;;19.50;99.90;;;;;;4737051;30;20513;-88
2022/08/17 07:06:21;;;;;;;;;;;19.50;99.90;;;;;;4737314;30;20158;-88
2022/08/17 07:08:56;;;;;;;80.57;50.13;;;19.40;99.90;;;;;;4737169;30;19941;-88
2022/08/17 07:11:34;;;;;;;94.82;55.10;;;19.50;99.90;;;;;;4736265;30;20063;-88
2022/08/17 07:14:30;;;;;;;89.50;53.35;;;19.50;99.90;;;;;;4736117;30;20060;-88
2022/08/17 07:16:59;;;;;;;83.10;54.80;;;19.50;99.90;;;;;;4737304;30;20098;-88
2022/08/17 07:19:34;;;;;;;91.72;56.65;;;19.50;99.90;;;;;;4736512;30;20508;-90
2022/08/17 07:22:17;;;;;;;89.03;55.05;;;19.60;99.90;;;;;;4737757;30;20055;-90
2022/08/17 07:24:52;;;;;;;81.57;52.92;;;19.70;99.90;;;;;;4738930;30;20412;-89
2022/08/17 07:27:21;;;;;;;80.45;51.55;;;19.70;99.90;;;;;;4738721;30;20048;-89
2022/08/17 07:29:50;;;;;;;87.10;51.92;;;19.80;99.90;;;;;;4737267;30;20064;-89
2022/08/17 07:32:21;;;;;;;94.13;54.88;;;19.80;99.90;;;;;;4736369;30;20092;-89
2022/08/17 07:35:38;;;;;;;89.25;53.35;;;19.80;99.90;;;;;;4737400;30;20052;-92
2022/08/17 07:39:10;;;;;;;91.03;52.22;;;19.90;99.90;;;;;;4728817;30;20052;-94
2022/08/17 07:41:49;;;;;;;97.28;54.13;;;20.10;99.90;;;;;;4739222;30;20078;-94
2022/08/17 07:48:18;;;;;;;;;;;20.10;99.90;;;;;;4767613;30;20051;-94
2022/08/17 07:51:28;;;;;;;88.97;55.78;;;20.30;99.90;;;;;;4720061;30;19937;-94
2022/08/17 07:54:12;;;;;;;101.82;57.25;;;20.30;99.90;;;;;;4734023;30;20059;-94
2022/08/17 07:57:14;;;;;;;114.97;63.28;;;20.30;99.90;;;;;;4736774;30;20078;-93
2022/08/17 08:03:30;;;;;;;;;;;;;;;;;;;;;
2022/08/17 08:09:55;;;;;;;102.32;55.95;;;20.70;99.90;;;;;;4716921;30;20148;-94
2022/08/17 08:13:33;;;;;;;85.80;53.83;;;20.50;99.90;;;;;;4711259;30;20059;-94
2022/08/17 08:16:38;;;;;;;79.47;52.65;;;20.60;99.90;;;;;;4745496;30;20146;-93
2022/08/17 08:20:20;;;;;;;78.20;51.50;;;20.80;99.90;;;;;;4737156;30;20060;-94
2022/08/17 08:23:07;;;;;;;72.72;51.22;;;20.80;99.90;;;;;;4760246;30;20060;-93
2022/08/17 08:26:01;;;;;;;75.18;48.72;;;21.00;99.90;;;;;;4702906;30;20056;-93
2022/08/17 08:28:43;;;;;;;71.10;52.03;;;21.10;99.90;;;;;;4737119;30;20083;-95
2022/08/17 08:31:34;;;;;;;77.40;51.72;;;21.10;99.90;;;;;;4753624;30;20055;-94
2022/08/17 08:34:40;;;;;;;;;;;;;;;;;;;;;
2022/08/17 08:37:56;;;;;;;62.70;46.63;;;21.40;99.90;;;;;;4750327;30;20055;-94
2022/08/17 08:41:08;;;;;;;61.72;43.72;;;21.60;99.90;;;;;;4729611;30;20135;-94
2022/08/17 08:44:04;;;;;;;61.13;45.08;;;21.90;99.90;;;;;;4726074;30;20059;-95
2022/08/17 08:47:13;;;;;;;59.30;42.15;;;21.90;99.90;;;;;;4729979;30;20478;-93
2022/08/17 08:50:01;;;;;;;53.53;40.40;;;21.90;99.90;;;;;;4697115;30;20065;-93
2022/08/17 08:52:58;;;;;;;50.72;39.85;;;21.90;99.90;;;;;;4739108;30;20055;-95
2022/08/17 08:55:44;;;;;;;53.90;40.70;;;21.90;99.90;;;;;;4736375;30;20063;-93
2022/08/17 08:58:19;;;;;;;54.05;40.45;;;21.90;99.90;;;;;;4733824;30;20051;-90
2022/08/17 09:00:50;;;;;;;54.85;41.22;;;21.90;99.90;;;;;;4735333;30;20074;-90
2022/08/17 09:03:23;;;;;;;59.58;43.33;;;21.90;99.90;;;;;;4735557;30;20087;-88
2022/08/17 09:05:55;;;;;;;58.78;43.30;;;21.80;99.90;;;;;;4763542;30;20482;-88
2022/08/17 09:08:32;;;;;;;60.77;44.57;;;21.80;99.90;;;;;;4749760;30;20134;-88
2022/08/17 09:11:11;;;;;;;55.13;40.65;;;21.90;99.90;;;;;;4735862;30;20371;-89
2022/08/17 09:13:59;;;;;;;47.58;38.45;;;21.70;99.90;;;;;;4751006;30;20075;-90
2022/08/17 09:16:29;;;;;;;51.00;37.55;;;22.10;99.90;;;;;;4733519;30;20502;-90
2022/08/17 09:19:03;;;;;;;49.15;35.80;;;22.20;99.90;;;;;;4749620;30;20052;-91
2022/08/17 09:21:39;;;;;;;48.83;37.42;;;22.20;99.90;;;;;;4736682;30;20172;-89
2022/08/17 09:24:12;;;;;;;52.50;37.90;;;22.10;99.90;;;;;;4737931;30;20138;-89
2022/08/17 09:26:57;;;;;;;43.00;35.40;;;22.20;99.90;;;;;;4737154;30;20117;-90
2022/08/17 09:29:26;;;;;;;50.67;37.70;;;22.10;99.90;;;;;;4735614;30;20051;-89
2022/08/17 09:31:55;;;;;;;43.78;36.72;;;22.20;99.90;;;;;;4734957;30;20138;-89
2022/08/17 09:34:33;;;;;;;47.65;36.13;;;22.30;99.90;;;;;;4735040;30;20151;-89
2022/08/17 09:37:26;;;;;;;44.97;36.92;;;22.40;99.90;;;;;;4736369;30;20073;-90
2022/08/17 09:40:07;;;;;;;44.67;38.42;;;22.60;99.90;;;;;;4731698;30;20044;-88
2022/08/17 09:42:53;;;;;;;49.60;38.88;;;22.80;99.90;;;;;;4742767;30;20048;-89
2022/08/17 09:45:50;;;;;;;50.80;39.90;;;22.80;99.90;;;;;;4733314;30;20110;-89
2022/08/17 09:48:19;;;;;;;55.33;42.45;;;22.90;99.90;;;;;;4752108;30;20139;-89
2022/08/17 09:50:54;;;;;;;47.92;38.90;;;22.90;99.90;;;;;;4737732;30;20052;-89
2022/08/17 09:53:20;;;;;;;50.83;38.63;;;22.80;99.90;;;;;;4738596;30;20414;-90
2022/08/17 09:55:58;;;;;;;50.88;39.13;;;22.80;99.90;;;;;;4738508;30;20044;-90
2022/08/17 09:58:36;;;;;;;54.63;38.83;;;22.80;99.90;;;;;;4737984;30;20056;-90
2022/08/17 10:01:14;;;;;;;47.45;38.03;;;22.80;99.90;;;;;;4748407;30;20075;-90
2022/08/17 10:04:08;;;;;;;42.40;37.58;;;22.80;99.90;;;;;;4720876;30;20055;-90
2022/08/17 10:06:50;;;;;;;47.58;38.40;;;22.70;99.90;;;;;;4749639;30;20087;-91
2022/08/17 10:09:29;;;;;;;49.75;38.00;;;22.70;99.90;;;;;;4751442;30;20607;-89
2022/08/17 10:12:15;;;;;;;49.75;38.22;;;22.60;99.90;;;;;;4738818;30;20250;-89
2022/08/17 10:15:14;;;;;;;43.63;36.78;;;22.60;99.90;;;;;;4738232;30;20074;-89
2022/08/17 10:17:46;;;;;;;42.13;37.03;;;22.50;99.90;;;;;;4735687;30;20091;-90
2022/08/17 10:20:21;;;;;;;45.03;36.97;;;22.40;99.90;;;;;;4736774;30;20076;-90
2022/08/17 10:28:52;;;;;;;40.85;34.05;;;22.30;99.90;;;;;;4748508;30;20585;-89
2022/08/17 10:31:40;;;;;;;41.20;34.15;;;22.10;99.90;;;;;;4734780;30;20100;-90
2022/08/17 10:34:28;;;;;;;43.47;33.22;;;22.20;99.90;;;;;;4735753;30;20486;-89
2022/08/17 10:37:07;;;;;;;40.35;31.88;;;22.30;99.90;;;;;;4752088;30;20508;-88
2022/08/17 10:39:45;;;;;;;37.25;29.88;;;22.40;99.90;;;;;;4736858;30;20124;-88
2022/08/17 10:42:29;;;;;;;41.45;32.13;;;22.50;99.90;;;;;;4734814;30;20091;-89
2022/08/17 10:45:05;;;;;;;37.65;30.10;;;22.60;99.90;;;;;;4735562;30;20161;-90
2022/08/17 10:47:58;;;;;;;35.67;30.80;;;22.60;99.90;;;;;;4726053;30;20079;-88
2022/08/17 10:50:41;;;;;;;;;;;22.70;99.90;;;;;;4736788;30;20058;-89
2022/08/17 10:53:07;;;;;;;34.30;29.83;;;22.70;99.90;;;;;;4734069;30;20346;-89
2022/08/17 10:55:32;;;;;;;36.45;29.30;;;22.80;99.90;;;;;;4733845;30;20092;-89
2022/08/17 10:58:20;;;;;;;34.25;29.65;;;22.80;99.90;;;;;;4716853;30;20055;-89
2022/08/17 11:00:52;;;;;;;30.77;27.42;;;23.00;99.90;;;;;;4737760;30;20067;-89
2022/08/17 11:03:22;;;;;;;31.60;27.73;;;23.00;99.90;;;;;;4734679;30;20047;-88
2022/08/17 11:06:01;;;;;;;39.83;28.05;;;23.20;99.90;;;;;;4734780;30;20048;-88
2022/08/17 11:08:29;;;;;;;31.08;26.63;;;23.30;99.90;;;;;;4737158;30;20135;-89
2022/08/17 11:11:13;;;;;;;31.35;23.65;;;23.30;99.90;;;;;;4736309;30;20059;-89
2022/08/17 11:13:54;;;;;;;25.73;19.08;;;23.40;99.90;;;;;;4733909;30;20670;-89
2022/08/17 11:16:31;;;;;;;23.80;18.60;;;23.40;99.90;;;;;;4733914;30;20055;-89
2022/08/17 11:19:15;;;;;;;22.70;18.70;;;23.50;99.90;;;;;;4736458;30;20048;-89
2022/08/17 11:22:05;;;;;;;30.77;20.67;;;23.60;99.90;;;;;;4736038;30;20048;-89
2022/08/17 11:24:36;;;;;;;27.95;20.85;;;23.70;99.90;;;;;;4734813;30;20055;-88
2022/08/17 11:27:08;;;;;;;25.05;20.13;;;23.80;99.90;;;;;;4733995;30;20582;-90
2022/08/17 11:29:54;;;;;;;25.20;19.45;;;23.80;99.90;;;;;;4734702;30;20418;-88
2022/08/17 11:32:41;;;;;;;29.55;18.88;;;23.90;99.90;;;;;;4733987;30;20052;-90
2022/08/17 11:35:18;;;;;;;22.70;18.75;;;24.10;99.90;;;;;;4734189;30;20082;-89
2022/08/17 11:38:04;;;;;;;20.15;17.90;;;24.20;99.90;;;;;;4735497;30;20055;-89
2022/08/17 11:40:58;;;;;;;21.35;15.43;;;24.20;99.90;;;;;;4734360;30;20052;-90
2022/08/17 11:43:43;;;;;;;21.48;12.60;;;24.20;99.90;;;;;;4748798;30;20453;-89
2022/08/17 11:46:18;;;;;;;21.92;14.98;;;24.30;99.90;;;;;;4731278;30;20094;-92
2022/08/17 11:51:59;;;;;;;14.15;10.60;;;24.20;99.90;;;;;;4732021;30;20052;-90
2022/08/17 11:54:29;;;;;;;18.10;12.70;;;24.40;99.90;;;;;;4730250;30;20052;-92
2022/08/17 11:57:23;;;;;;;19.98;13.13;;;24.60;99.90;;;;;;4721477;30;20077;-96
2022/08/17 12:00:39;;;;;;;;;;;;;;;;;;;;;
2022/08/17 12:04:02;;;;;;;17.45;12.82;;;24.40;99.90;;;;;;4734068;30;20052;-94
2022/08/17 12:06:55;;;;;;;17.75;12.00;;;24.30;99.90;;;;;;4733630;30;20071;-94
2022/08/17 12:10:16;;;;;;;17.27;12.73;;;24.10;99.90;;;;;;4732129;30;20063;-93
2022/08/17 12:12:56;;;;;;;17.33;11.27;;;24.20;99.90;;;;;;4717862;30;20106;-93
2022/08/17 12:19:30;;;;;;;;;;;;;;;;;;;;;
2022/08/17 12:22:14;;;;;;;16.95;9.85;;;24.30;99.90;;;;;;4750753;30;20059;-94
2022/08/17 12:25:03;;;;;;;16.65;12.05;;;24.40;99.90;;;;;;4736609;30;20132;-95
2022/08/17 12:27:59;;;;;;;18.10;11.68;;;24.40;99.90;;;;;;4721443;30;20145;-94
2022/08/17 12:30:37;;;;;;;21.02;14.18;;;24.40;99.90;;;;;;4719819;30;20063;-94
2022/08/17 12:33:23;;;;;;;;;;;;;;;;;;;;;
2022/08/17 12:36:17;;;;;;;21.00;14.45;;;24.40;99.90;;;;;;4734577;30;20087;-94
2022/08/17 12:39:56;;;;;;;22.33;13.35;;;24.50;99.90;;;;;;4736691;30;20056;-93
2022/08/17 12:43:06;;;;;;;21.10;12.75;;;24.40;99.90;;;;;;4704533;30;20146;-94
2022/08/17 12:46:16;;;;;;;;;;;;;;;;;;;;;
2022/08/17 12:49:11;;;;;;;21.20;15.40;;;24.40;99.90;;;;;;4733426;30;20048;-94
2022/08/17 12:51:43;;;;;;;17.63;13.05;;;24.50;99.90;;;;;;4703945;30;20071;-94
2022/08/17 12:54:39;;;;;;;20.25;13.13;;;24.50;99.90;;;;;;4719111;30;20048;-93
2022/08/17 12:57:13;;;;;;;26.40;14.20;;;24.50;99.90;;;;;;4751116;30;20447;-93
2022/08/17 12:59:46;;;;;;;27.80;14.43;;;24.50;99.90;;;;;;4736819;30;20418;-94
2022/08/17 13:02:27;;;;;;;21.70;13.23;;;24.50;99.90;;;;;;4735642;30;20055;-89
2022/08/17 13:04:56;;;;;;;22.40;13.55;;;24.60;99.90;;;;;;4735910;30;20055;-89
2022/08/17 13:07:35;;;;;;;20.50;12.00;;;24.50;99.90;;;;;;4736400;30;20044;-90
2022/08/17 13:10:01;;;;;;;13.70;10.07;;;24.50;99.90;;;;;;4754439;30;20063;-90
2022/08/17 13:12:30;;;;;;;17.10;11.10;;;24.50;99.90;;;;;;4751985;30;20055;-89
2022/08/17 13:14:57;;;;;;;15.52;10.60;;;24.40;99.90;;;;;;4766139;30;20051;-87
2022/08/17 13:17:31;;;;;;;14.43;9.80;;;24.40;99.90;;;;;;4750146;30;20454;-88
2022/08/17 13:19:57;;;;;;;18.45;10.43;;;24.20;99.90;;;;;;4750742;30;20054;-88
2022/08/17 13:22:26;;;;;;;17.65;11.23;;;24.10;99.90;;;;;;4749917;30;20051;-87
2022/08/17 13:24:56;;;;;;;18.60;12.60;;;24.00;99.90;;;;;;4751936;30;20382;-88
2022/08/17 13:27:24;;;;;;;19.20;12.95;;;24.00;99.90;;;;;;4749121;30;20142;-88
2022/08/17 13:29:56;;;;;;;21.27;12.60;;;24.00;99.90;;;;;;4752629;30;20047;-87
2022/08/17 13:32:34;;;;;;;22.08;13.07;;;23.90;99.90;;;;;;4749895;30;20053;-88
2022/08/17 13:35:21;;;;;;;17.58;12.10;;;23.90;99.90;;;;;;4743555;30;20047;-87
2022/08/17 13:38:05;;;;;;;19.38;13.80;;;23.80;99.90;;;;;;4750368;30;20056;-89
2022/08/17 13:40:31;;;;;;;21.60;13.75;;;23.70;99.90;;;;;;4750267;30;20167;-87
2022/08/17 13:42:57;;;;;;;17.98;14.23;;;23.80;99.90;;;;;;4750651;30;20503;-87
2022/08/17 13:45:27;;;;;;;21.30;15.45;;;23.70;99.90;;;;;;4751817;30;20059;-89
2022/08/17 13:48:08;;;;;;;21.42;13.65;;;23.70;99.90;;;;;;4748901;30;20311;-88
2022/08/17 13:50:41;;;;;;;19.58;12.88;;;23.60;99.90;;;;;;4751303;30;20055;-88
2022/08/17 13:53:20;;;;;;;21.23;12.55;;;23.70;99.90;;;;;;4751320;30;20047;-88
2022/08/17 13:55:51;;;;;;;20.33;11.32;;;23.70;99.90;;;;;;4752316;30;20133;-88